sensor_id;sensor_type;location;lat;lon;timestamp;temperature;humidity
48752;DHT22;34544;48.836;9.174;2022-08-26T00:01:59;19.70;99.90
48752;DHT22;34544;48.836;9.174;2022-08-26T00:04:25;19.70;99.90
48752;DHT22;34544;48.836;9.174;2022-08-26T00:06:53;19.70;99.90
48752;DHT22;34544;48.836;9.174;2022-08-26T00:09:20;19.60;99.90
48752;DHT22;34544;48.836;9.174;2022-08-26T00:11:46;19.60;99.90
48752;DHT22;34544;48.836;9.174;2022-08-26T00:14:12;19.60;99.90
48752;DHT22;34544;48.836;9.174;2022-08-26T00:16:38;19.60;99.90
48752;DHT22;34544;48.836;9.174;2022-08-26T00:19:04;19.60;99.90
48752;DHT22;34544;48.836;9.174;2022-08-26T00:21:30;19.50;99.90
48752;DHT22;34544;48.836;9.174;2022-08-26T00:23:55;19.60;99.90
48752;DHT22;34544;48.836;9.174;2022-08-26T00:26:21;19.50;99.90
48752;DHT22;34544;48.836;9.174;2022-08-26T00:28:47;19.50;99.90
48752;DHT22;34544;48.836;9.174;2022-08-26T00:31:14;19.50;99.90
48752;DHT22;34544;48.836;9.174;2022-08-26T00:33:40;19.50;99.90
48752;DHT22;34544;48.836;9.174;2022-08-26T00:36:06;19.50;99.90
48752;DHT22;34544;48.836;9.174;2022-08-26T00:38:34;19.50;99.90
48752;DHT22;34544;48.836;9.174;2022-08-26T00:40:59;19.40;99.90
48752;DHT22;34544;48.836;9.174;2022-08-26T00:43:25;19.40;99.90
48752;DHT22;34544;48.836;9.174;2022-08-26T00:46:00;19.40;99.90
48752;DHT22;34544;48.836;9.174;2022-08-26T00:48:29;19.40;99.90
48752;DHT22;34544;48.836;9.174;2022-08-26T00:51:03;19.30;99.90
48752;DHT22;34544;48.836;9.174;2022-08-26T00:53:35;19.30;99.90
48752;DHT22;34544;48.836;9.174;2022-08-26T00:56:12;19.30;99.90
48752;DHT22;34544;48.836;9.174;2022-08-26T00:58:38;19.30;99.90
48752;DHT22;34544;48.836;9.174;2022-08-26T01:01:08;19.30;99.90
48752;DHT22;34544;48.836;9.174;2022-08-26T01:03:36;19.20;99.90
48752;DHT22;34544;48.836;9.174;2022-08-26T01:06:03;19.20;99.90
48752;DHT22;34544;48.836;9.174;2022-08-26T01:08:29;19.20;99.90
48752;DHT22;34544;48.836;9.174;2022-08-26T01:10:56;19.20;99.90
48752;DHT22;34544;48.836;9.174;2022-08-26T01:13:23;19.10;99.90
48752;DHT22;34544;48.836;9.174;2022-08-26T01:15:52;19.10;99.90
48752;DHT22;34544;48.836;9.174;2022-08-26T01:18:19;19.10;99.90
48752;DHT22;34544;48.836;9.174;2022-08-26T01:23:20;19.00;99.90
48752;DHT22;34544;48.836;9.174;2022-08-26T01:25:51;19.00;99.90
48752;DHT22;34544;48.836;9.174;2022-08-26T01:28:28;19.00;99.90
48752;DHT22;34544;48.836;9.174;2022-08-26T01:30:56;19.00;99.90
48752;DHT22;34544;48.836;9.174;2022-08-26T01:33:29;19.00;99.90
48752;DHT22;34544;48.836;9.174;2022-08-26T01:35:56;19.00;99.90
48752;DHT22;34544;48.836;9.174;2022-08-26T01:38:22;19.00;99.90
48752;DHT22;34544;48.836;9.174;2022-08-26T01:40:48;19.00;99.90
48752;DHT22;34544;48.836;9.174;2022-08-26T01:43:19;19.00;99.90
48752;DHT22;34544;48.836;9.174;2022-08-26T01:45:47;19.00;99.90
48752;DHT22;34544;48.836;9.174;2022-08-26T01:48:16;18.90;99.90
48752;DHT22;34544;48.836;9.174;2022-08-26T01:50:45;18.90;99.90
48752;DHT22;34544;48.836;9.174;2022-08-26T01:53:14;19.00;99.90
48752;DHT22;34544;48.836;9.174;2022-08-26T01:55:42;18.90;99.90
48752;DHT22;34544;48.836;9.174;2022-08-26T01:58:15;18.90;99.90
48752;DHT22;34544;48.836;9.174;2022-08-26T02:00:42;18.90;99.90
48752;DHT22;34544;48.836;9.174;2022-08-26T02:03:09;18.90;99.90
48752;DHT22;34544;48.836;9.174;2022-08-26T02:08:16;18.80;99.90
48752;DHT22;34544;48.836;9.174;2022-08-26T02:10:42;18.80;99.90
48752;DHT22;34544;48.836;9.174;2022-08-26T02:13:09;18.80;99.90
48752;DHT22;34544;48.836;9.174;2022-08-26T02:15:36;18.80;99.90
48752;DHT22;34544;48.836;9.174;2022-08-26T02:18:06;18.80;99.90
48752;DHT22;34544;48.836;9.174;2022-08-26T02:20:32;18.80;99.90
48752;DHT22;34544;48.836;9.174;2022-08-26T02:22:58;18.80;99.90
48752;DHT22;34544;48.836;9.174;2022-08-26T02:25:37;18.80;99.90
48752;DHT22;34544;48.836;9.174;2022-08-26T02:28:04;18.70;99.90
48752;DHT22;34544;48.836;9.174;2022-08-26T02:30:31;18.70;99.90
48752;DHT22;34544;48.836;9.174;2022-08-26T02:33:00;18.70;99.90
48752;DHT22;34544;48.836;9.174;2022-08-26T02:35:29;18.70;99.90
48752;DHT22;34544;48.836;9.174;2022-08-26T02:37:55;18.60;99.90
48752;DHT22;34544;48.836;9.174;2022-08-26T02:40:24;18.60;99.90
48752;DHT22;34544;48.836;9.174;2022-08-26T02:42:50;18.60;99.90
48752;DHT22;34544;48.836;9.174;2022-08-26T02:45:17;18.60;99.90
48752;DHT22;34544;48.836;9.174;2022-08-26T02:47:43;18.50;99.90
48752;DHT22;34544;48.836;9.174;2022-08-26T02:50:10;18.50;99.90
48752;DHT22;34544;48.836;9.174;2022-08-26T02:52:36;18.50;99.90
48752;DHT22;34544;48.836;9.174;2022-08-26T02:55:02;18.50;99.90
48752;DHT22;34544;48.836;9.174;2022-08-26T02:57:29;18.50;99.90
48752;DHT22;34544;48.836;9.174;2022-08-26T02:59:56;18.50;99.90
48752;DHT22;34544;48.836;9.174;2022-08-26T03:02:22;18.50;99.90
48752;DHT22;34544;48.836;9.174;2022-08-26T03:04:48;18.40;99.90
48752;DHT22;34544;48.836;9.174;2022-08-26T03:07:13;18.40;99.90
48752;DHT22;34544;48.836;9.174;2022-08-26T03:09:39;18.40;99.90
48752;DHT22;34544;48.836;9.174;2022-08-26T03:12:05;18.40;99.90
48752;DHT22;34544;48.836;9.174;2022-08-26T03:14:30;18.30;99.90
48752;DHT22;34544;48.836;9.174;2022-08-26T03:16:56;18.30;99.90
48752;DHT22;34544;48.836;9.174;2022-08-26T03:19:23;18.30;99.90
48752;DHT22;34544;48.836;9.174;2022-08-26T03:21:50;18.20;99.90
48752;DHT22;34544;48.836;9.174;2022-08-26T03:24:17;18.20;99.90
48752;DHT22;34544;48.836;9.174;2022-08-26T03:26:44;18.20;99.90
48752;DHT22;34544;48.836;9.174;2022-08-26T03:29:10;18.20;99.90
48752;DHT22;34544;48.836;9.174;2022-08-26T03:31:54;18.10;99.90
48752;DHT22;34544;48.836;9.174;2022-08-26T03:34:20;18.10;99.90
48752;DHT22;34544;48.836;9.174;2022-08-26T03:36:45;18.10;99.90
48752;DHT22;34544;48.836;9.174;2022-08-26T03:39:12;18.10;99.90
48752;DHT22;34544;48.836;9.174;2022-08-26T03:41:38;18.10;99.90
48752;DHT22;34544;48.836;9.174;2022-08-26T03:44:06;18.00;99.90
48752;DHT22;34544;48.836;9.174;2022-08-26T03:46:33;18.00;99.90
48752;DHT22;34544;48.836;9.174;2022-08-26T03:49:00;18.00;99.90
48752;DHT22;34544;48.836;9.174;2022-08-26T03:51:27;18.00;99.90
48752;DHT22;34544;48.836;9.174;2022-08-26T03:53:52;18.00;99.90
48752;DHT22;34544;48.836;9.174;2022-08-26T03:56:18;17.90;99.90
48752;DHT22;34544;48.836;9.174;2022-08-26T03:58:44;17.90;99.90
48752;DHT22;34544;48.836;9.174;2022-08-26T04:01:11;17.90;99.90
48752;DHT22;34544;48.836;9.174;2022-08-26T04:03:37;17.90;99.90
48752;DHT22;34544;48.836;9.174;2022-08-26T04:06:21;17.90;99.90
48752;DHT22;34544;48.836;9.174;2022-08-26T04:08:47;17.90;99.90
48752;DHT22;34544;48.836;9.174;2022-08-26T04:11:17;17.90;99.90
48752;DHT22;34544;48.836;9.174;2022-08-26T04:13:44;17.80;99.90
48752;DHT22;34544;48.836;9.174;2022-08-26T04:16:10;17.80;99.90
48752;DHT22;34544;48.836;9.174;2022-08-26T04:18:36;17.80;99.90
48752;DHT22;34544;48.836;9.174;2022-08-26T04:21:04;17.80;99.90
48752;DHT22;34544;48.836;9.174;2022-08-26T04:23:30;17.80;99.90
48752;DHT22;34544;48.836;9.174;2022-08-26T04:25:55;17.70;99.90
48752;DHT22;34544;48.836;9.174;2022-08-26T04:28:21;17.80;99.90
48752;DHT22;34544;48.836;9.174;2022-08-26T04:30:47;17.70;99.90
48752;DHT22;34544;48.836;9.174;2022-08-26T04:33:14;17.70;99.90
48752;DHT22;34544;48.836;9.174;2022-08-26T04:35:39;17.70;99.90
48752;DHT22;34544;48.836;9.174;2022-08-26T04:38:05;17.70;99.90
48752;DHT22;34544;48.836;9.174;2022-08-26T04:40:31;17.70;99.90
48752;DHT22;34544;48.836;9.174;2022-08-26T04:42:57;17.70;99.90
48752;DHT22;34544;48.836;9.174;2022-08-26T04:45:23;17.70;99.90
48752;DHT22;34544;48.836;9.174;2022-08-26T04:47:52;17.70;99.90
48752;DHT22;34544;48.836;9.174;2022-08-26T04:50:19;17.70;99.90
48752;DHT22;34544;48.836;9.174;2022-08-26T04:52:49;17.80;99.90
48752;DHT22;34544;48.836;9.174;2022-08-26T04:55:14;17.80;99.90
48752;DHT22;34544;48.836;9.174;2022-08-26T04:57:40;17.90;99.90
48752;DHT22;34544;48.836;9.174;2022-08-26T05:00:08;17.90;99.90
48752;DHT22;34544;48.836;9.174;2022-08-26T05:02:36;17.90;99.90
48752;DHT22;34544;48.836;9.174;2022-08-26T05:05:02;18.00;99.90
48752;DHT22;34544;48.836;9.174;2022-08-26T05:07:31;18.00;99.90
48752;DHT22;34544;48.836;9.174;2022-08-26T05:09:58;18.10;99.90
48752;DHT22;34544;48.836;9.174;2022-08-26T05:12:24;18.10;99.90
48752;DHT22;34544;48.836;9.174;2022-08-26T05:14:50;18.20;99.90
48752;DHT22;34544;48.836;9.174;2022-08-26T05:17:16;18.20;99.90
48752;DHT22;34544;48.836;9.174;2022-08-26T05:19:42;18.30;99.90
48752;DHT22;34544;48.836;9.174;2022-08-26T05:22:08;18.40;99.90
48752;DHT22;34544;48.836;9.174;2022-08-26T05:24:33;18.50;99.90
48752;DHT22;34544;48.836;9.174;2022-08-26T05:27:00;18.50;99.90
48752;DHT22;34544;48.836;9.174;2022-08-26T05:29:27;18.60;99.90
48752;DHT22;34544;48.836;9.174;2022-08-26T05:31:53;18.70;99.90
48752;DHT22;34544;48.836;9.174;2022-08-26T05:34:19;18.80;99.90
48752;DHT22;34544;48.836;9.174;2022-08-26T05:36:45;18.80;99.90
48752;DHT22;34544;48.836;9.174;2022-08-26T05:39:10;18.90;99.90
48752;DHT22;34544;48.836;9.174;2022-08-26T05:41:38;19.00;99.90
48752;DHT22;34544;48.836;9.174;2022-08-26T05:44:12;19.00;99.90
48752;DHT22;34544;48.836;9.174;2022-08-26T05:46:39;19.10;99.90
48752;DHT22;34544;48.836;9.174;2022-08-26T05:49:05;19.10;99.90
48752;DHT22;34544;48.836;9.174;2022-08-26T05:51:32;19.20;99.90
48752;DHT22;34544;48.836;9.174;2022-08-26T05:53:57;19.20;99.90
48752;DHT22;34544;48.836;9.174;2022-08-26T05:56:25;19.30;99.90
48752;DHT22;34544;48.836;9.174;2022-08-26T05:58:52;19.30;99.90
48752;DHT22;34544;48.836;9.174;2022-08-26T06:01:20;19.40;99.90
48752;DHT22;34544;48.836;9.174;2022-08-26T06:03:49;19.50;99.90
48752;DHT22;34544;48.836;9.174;2022-08-26T06:06:42;19.50;99.90
48752;DHT22;34544;48.836;9.174;2022-08-26T06:09:08;19.60;99.90
48752;DHT22;34544;48.836;9.174;2022-08-26T06:11:35;19.60;99.90
48752;DHT22;34544;48.836;9.174;2022-08-26T06:14:03;19.70;99.90
48752;DHT22;34544;48.836;9.174;2022-08-26T06:16:29;19.70;99.90
48752;DHT22;34544;48.836;9.174;2022-08-26T06:18:55;19.70;99.90
48752;DHT22;34544;48.836;9.174;2022-08-26T06:21:24;19.70;99.90
48752;DHT22;34544;48.836;9.174;2022-08-26T06:23:53;19.80;99.90
48752;DHT22;34544;48.836;9.174;2022-08-26T06:26:38;19.80;99.90
48752;DHT22;34544;48.836;9.174;2022-08-26T06:29:15;19.90;99.90
48752;DHT22;34544;48.836;9.174;2022-08-26T06:31:41;19.90;99.90
48752;DHT22;34544;48.836;9.174;2022-08-26T06:34:07;19.90;99.90
48752;DHT22;34544;48.836;9.174;2022-08-26T06:36:33;20.00;99.90
48752;DHT22;34544;48.836;9.174;2022-08-26T06:39:05;20.10;99.90
48752;DHT22;34544;48.836;9.174;2022-08-26T06:41:31;20.20;99.90
48752;DHT22;34544;48.836;9.174;2022-08-26T06:43:58;20.30;99.90
48752;DHT22;34544;48.836;9.174;2022-08-26T06:46:25;20.30;99.90
48752;DHT22;34544;48.836;9.174;2022-08-26T06:48:51;20.40;99.90
48752;DHT22;34544;48.836;9.174;2022-08-26T06:51:20;20.50;99.90
48752;DHT22;34544;48.836;9.174;2022-08-26T06:53:47;20.60;99.90
48752;DHT22;34544;48.836;9.174;2022-08-26T06:56:18;20.70;99.90
48752;DHT22;34544;48.836;9.174;2022-08-26T06:58:44;20.90;99.90
48752;DHT22;34544;48.836;9.174;2022-08-26T07:01:18;21.00;99.90
48752;DHT22;34544;48.836;9.174;2022-08-26T07:03:45;21.00;99.90
48752;DHT22;34544;48.836;9.174;2022-08-26T07:06:12;21.10;99.90
48752;DHT22;34544;48.836;9.174;2022-08-26T07:08:38;21.20;99.90
48752;DHT22;34544;48.836;9.174;2022-08-26T07:11:07;21.20;99.90
48752;DHT22;34544;48.836;9.174;2022-08-26T07:13:34;21.30;99.90
48752;DHT22;34544;48.836;9.174;2022-08-26T07:16:06;21.40;99.90
48752;DHT22;34544;48.836;9.174;2022-08-26T07:18:34;21.60;99.90
48752;DHT22;34544;48.836;9.174;2022-08-26T07:21:05;21.70;99.90
48752;DHT22;34544;48.836;9.174;2022-08-26T07:23:33;21.90;99.90
48752;DHT22;34544;48.836;9.174;2022-08-26T07:25:59;22.10;99.90
48752;DHT22;34544;48.836;9.174;2022-08-26T07:28:28;22.30;99.90
48752;DHT22;34544;48.836;9.174;2022-08-26T07:30:54;22.50;99.90
48752;DHT22;34544;48.836;9.174;2022-08-26T07:33:19;22.70;99.90
48752;DHT22;34544;48.836;9.174;2022-08-26T07:35:45;22.90;99.90
48752;DHT22;34544;48.836;9.174;2022-08-26T07:38:11;23.10;99.90
48752;DHT22;34544;48.836;9.174;2022-08-26T07:40:38;23.20;99.90
48752;DHT22;34544;48.836;9.174;2022-08-26T07:43:06;23.20;99.90
48752;DHT22;34544;48.836;9.174;2022-08-26T07:45:32;23.20;99.90
48752;DHT22;34544;48.836;9.174;2022-08-26T07:47:58;23.30;99.90
48752;DHT22;34544;48.836;9.174;2022-08-26T07:50:24;23.50;99.90
48752;DHT22;34544;48.836;9.174;2022-08-26T07:52:50;23.70;99.90
48752;DHT22;34544;48.836;9.174;2022-08-26T07:55:16;23.80;99.90
48752;DHT22;34544;48.836;9.174;2022-08-26T07:57:42;23.90;99.90
48752;DHT22;34544;48.836;9.174;2022-08-26T08:00:11;24.00;99.90
48752;DHT22;34544;48.836;9.174;2022-08-26T08:02:39;24.10;99.90
48752;DHT22;34544;48.836;9.174;2022-08-26T08:05:05;24.20;99.90
48752;DHT22;34544;48.836;9.174;2022-08-26T08:07:31;24.30;99.90
48752;DHT22;34544;48.836;9.174;2022-08-26T08:09:57;24.40;99.90
48752;DHT22;34544;48.836;9.174;2022-08-26T08:12:22;24.30;99.90
48752;DHT22;34544;48.836;9.174;2022-08-26T08:14:48;24.40;99.90
48752;DHT22;34544;48.836;9.174;2022-08-26T08:17:15;24.40;99.90
48752;DHT22;34544;48.836;9.174;2022-08-26T08:19:40;24.60;99.90
48752;DHT22;34544;48.836;9.174;2022-08-26T08:22:07;24.80;99.90
48752;DHT22;34544;48.836;9.174;2022-08-26T08:24:33;25.10;99.90
48752;DHT22;34544;48.836;9.174;2022-08-26T08:27:02;25.40;99.90
48752;DHT22;34544;48.836;9.174;2022-08-26T08:29:28;25.70;99.90
48752;DHT22;34544;48.836;9.174;2022-08-26T08:31:57;25.90;99.90
48752;DHT22;34544;48.836;9.174;2022-08-26T08:34:24;25.90;99.90
48752;DHT22;34544;48.836;9.174;2022-08-26T08:36:50;26.00;99.90
48752;DHT22;34544;48.836;9.174;2022-08-26T08:39:16;26.10;99.90
48752;DHT22;34544;48.836;9.174;2022-08-26T08:44:28;26.20;99.90
48752;DHT22;34544;48.836;9.174;2022-08-26T08:46:58;26.30;99.90
48752;DHT22;34544;48.836;9.174;2022-08-26T08:49:26;26.40;99.90
48752;DHT22;34544;48.836;9.174;2022-08-26T08:51:57;26.50;99.90
48752;DHT22;34544;48.836;9.174;2022-08-26T08:54:25;26.60;99.90
48752;DHT22;34544;48.836;9.174;2022-08-26T08:57:01;26.80;99.90
48752;DHT22;34544;48.836;9.174;2022-08-26T08:59:33;27.00;99.90
48752;DHT22;34544;48.836;9.174;2022-08-26T09:05:09;28.10;99.90
48752;DHT22;34544;48.836;9.174;2022-08-26T09:08:01;28.90;99.60
48752;DHT22;34544;48.836;9.174;2022-08-26T09:12:57;30.00;97.20
48752;DHT22;34544;48.836;9.174;2022-08-26T09:15:44;30.50;96.10
48752;DHT22;34544;48.836;9.174;2022-08-26T09:18:29;31.00;95.50
48752;DHT22;34544;48.836;9.174;2022-08-26T09:21:03;31.70;94.30
48752;DHT22;34544;48.836;9.174;2022-08-26T09:23:32;32.30;92.10
48752;DHT22;34544;48.836;9.174;2022-08-26T09:26:17;32.60;92.00
48752;DHT22;34544;48.836;9.174;2022-08-26T09:29:07;33.20;91.20
48752;DHT22;34544;48.836;9.174;2022-08-26T09:31:38;33.80;88.70
48752;DHT22;34544;48.836;9.174;2022-08-26T09:34:17;33.80;87.70
48752;DHT22;34544;48.836;9.174;2022-08-26T09:36:45;33.70;87.40
48752;DHT22;34544;48.836;9.174;2022-08-26T09:42:05;34.10;86.30
48752;DHT22;34544;48.836;9.174;2022-08-26T09:44:31;34.30;85.10
48752;DHT22;34544;48.836;9.174;2022-08-26T09:47:00;34.80;85.70
48752;DHT22;34544;48.836;9.174;2022-08-26T09:49:38;35.20;84.60
48752;DHT22;34544;48.836;9.174;2022-08-26T09:52:16;35.70;83.30
48752;DHT22;34544;48.836;9.174;2022-08-26T09:54:44;35.70;82.20
48752;DHT22;34544;48.836;9.174;2022-08-26T09:57:27;35.60;83.00
48752;DHT22;34544;48.836;9.174;2022-08-26T09:59:53;35.70;83.30
48752;DHT22;34544;48.836;9.174;2022-08-26T10:05:02;36.40;84.40
48752;DHT22;34544;48.836;9.174;2022-08-26T10:07:42;36.50;80.80
48752;DHT22;34544;48.836;9.174;2022-08-26T10:10:41;36.70;78.90
48752;DHT22;34544;48.836;9.174;2022-08-26T10:13:00;36.70;81.00
48752;DHT22;34544;48.836;9.174;2022-08-26T10:15:32;36.90;79.30
48752;DHT22;34544;48.836;9.174;2022-08-26T10:18:05;37.10;78.60
48752;DHT22;34544;48.836;9.174;2022-08-26T10:20:44;36.80;77.10
48752;DHT22;34544;48.836;9.174;2022-08-26T10:23:18;36.80;76.80
48752;DHT22;34544;48.836;9.174;2022-08-26T10:26:07;36.90;76.80
48752;DHT22;34544;48.836;9.174;2022-08-26T10:28:42;36.80;76.10
48752;DHT22;34544;48.836;9.174;2022-08-26T10:33:54;37.30;77.50
48752;DHT22;34544;48.836;9.174;2022-08-26T10:36:21;37.50;77.40
48752;DHT22;34544;48.836;9.174;2022-08-26T10:39:12;38.00;77.10
48752;DHT22;34544;48.836;9.174;2022-08-26T10:41:41;38.30;76.10
48752;DHT22;34544;48.836;9.174;2022-08-26T10:44:10;38.30;74.70
48752;DHT22;34544;48.836;9.174;2022-08-26T10:46:44;37.90;75.80
48752;DHT22;34544;48.836;9.174;2022-08-26T10:49:12;37.60;76.60
48752;DHT22;34544;48.836;9.174;2022-08-26T10:52:01;37.40;75.90
48752;DHT22;34544;48.836;9.174;2022-08-26T10:54:50;37.10;75.90
48752;DHT22;34544;48.836;9.174;2022-08-26T10:57:46;36.60;77.50
48752;DHT22;34544;48.836;9.174;2022-08-26T11:00:36;36.50;77.00
48752;DHT22;34544;48.836;9.174;2022-08-26T11:03:44;36.90;76.20
48752;DHT22;34544;48.836;9.174;2022-08-26T11:06:27;37.70;74.90
48752;DHT22;34544;48.836;9.174;2022-08-26T11:09:02;38.20;73.60
48752;DHT22;34544;48.836;9.174;2022-08-26T11:16:40;37.10;74.00
48752;DHT22;34544;48.836;9.174;2022-08-26T11:19:08;37.30;73.30
48752;DHT22;34544;48.836;9.174;2022-08-26T11:21:48;37.70;74.00
48752;DHT22;34544;48.836;9.174;2022-08-26T11:30:04;39.70;70.30
48752;DHT22;34544;48.836;9.174;2022-08-26T11:35:04;40.50;69.50
48752;DHT22;34544;48.836;9.174;2022-08-26T11:37:35;40.40;69.20
48752;DHT22;34544;48.836;9.174;2022-08-26T11:40:07;39.90;69.70
48752;DHT22;34544;48.836;9.174;2022-08-26T11:43:01;39.10;70.50
48752;DHT22;34544;48.836;9.174;2022-08-26T11:48:27;38.80;70.00
48752;DHT22;34544;48.836;9.174;2022-08-26T11:50:54;39.40;69.50
48752;DHT22;34544;48.836;9.174;2022-08-26T11:53:21;40.00;68.10
48752;DHT22;34544;48.836;9.174;2022-08-26T11:55:49;40.30;67.50
48752;DHT22;34544;48.836;9.174;2022-08-26T11:58:17;40.40;67.80
48752;DHT22;34544;48.836;9.174;2022-08-26T12:03:25;40.70;67.50
48752;DHT22;34544;48.836;9.174;2022-08-26T12:05:56;40.90;66.50
48752;DHT22;34544;48.836;9.174;2022-08-26T12:08:24;40.90;65.50
48752;DHT22;34544;48.836;9.174;2022-08-26T12:11:02;41.20;65.60
48752;DHT22;34544;48.836;9.174;2022-08-26T12:13:28;41.40;67.00
48752;DHT22;34544;48.836;9.174;2022-08-26T12:15:57;41.60;67.30
48752;DHT22;34544;48.836;9.174;2022-08-26T12:18:29;41.60;67.60
48752;DHT22;34544;48.836;9.174;2022-08-26T12:21:03;41.30;66.80
48752;DHT22;34544;48.836;9.174;2022-08-26T12:26:17;40.60;68.10
48752;DHT22;34544;48.836;9.174;2022-08-26T12:28:55;40.30;68.10
48752;DHT22;34544;48.836;9.174;2022-08-26T12:31:32;40.30;68.40
48752;DHT22;34544;48.836;9.174;2022-08-26T12:34:00;40.70;67.60
48752;DHT22;34544;48.836;9.174;2022-08-26T12:36:35;40.60;67.80
48752;DHT22;34544;48.836;9.174;2022-08-26T12:39:07;40.40;67.50
48752;DHT22;34544;48.836;9.174;2022-08-26T12:47:04;38.50;70.40
48752;DHT22;34544;48.836;9.174;2022-08-26T12:49:30;38.20;70.60
48752;DHT22;34544;48.836;9.174;2022-08-26T12:51:56;38.00;71.20
48752;DHT22;34544;48.836;9.174;2022-08-26T12:54:22;37.50;70.90
48752;DHT22;34544;48.836;9.174;2022-08-26T12:57:09;36.90;72.40
48752;DHT22;34544;48.836;9.174;2022-08-26T12:59:35;36.40;72.20
48752;DHT22;34544;48.836;9.174;2022-08-26T13:02:01;36.10;73.10
48752;DHT22;34544;48.836;9.174;2022-08-26T13:04:39;35.60;73.50
48752;DHT22;34544;48.836;9.174;2022-08-26T13:07:22;35.20;74.30
48752;DHT22;34544;48.836;9.174;2022-08-26T13:09:51;34.80;74.40
48752;DHT22;34544;48.836;9.174;2022-08-26T13:12:32;34.30;74.30
48752;DHT22;34544;48.836;9.174;2022-08-26T13:14:59;34.00;75.50
48752;DHT22;34544;48.836;9.174;2022-08-26T13:17:28;33.60;74.80
48752;DHT22;34544;48.836;9.174;2022-08-26T13:19:54;33.40;74.90
48752;DHT22;34544;48.836;9.174;2022-08-26T13:22:21;33.10;75.50
48752;DHT22;34544;48.836;9.174;2022-08-26T13:24:52;33.00;87.70
48752;DHT22;34544;48.836;9.174;2022-08-26T13:27:21;32.70;74.70
48752;DHT22;34544;48.836;9.174;2022-08-26T13:29:49;32.40;73.20
48752;DHT22;34544;48.836;9.174;2022-08-26T13:32:15;32.20;73.40
48752;DHT22;34544;48.836;9.174;2022-08-26T13:34:43;32.00;73.90
48752;DHT22;34544;48.836;9.174;2022-08-26T13:37:11;31.90;75.30
48752;DHT22;34544;48.836;9.174;2022-08-26T13:39:37;31.70;75.40
48752;DHT22;34544;48.836;9.174;2022-08-26T13:42:03;31.60;76.20
48752;DHT22;34544;48.836;9.174;2022-08-26T13:44:29;31.40;76.60
48752;DHT22;34544;48.836;9.174;2022-08-26T13:46:55;31.30;77.90
48752;DHT22;34544;48.836;9.174;2022-08-26T13:49:20;31.20;77.90
48752;DHT22;34544;48.836;9.174;2022-08-26T13:51:47;31.10;77.90
48752;DHT22;34544;48.836;9.174;2022-08-26T13:54:12;31.00;78.70
48752;DHT22;34544;48.836;9.174;2022-08-26T13:56:38;31.10;78.90
48752;DHT22;34544;48.836;9.174;2022-08-26T13:59:05;31.10;79.00
48752;DHT22;34544;48.836;9.174;2022-08-26T14:01:31;31.10;77.60
48752;DHT22;34544;48.836;9.174;2022-08-26T14:03:57;31.30;77.40
48752;DHT22;34544;48.836;9.174;2022-08-26T14:06:22;31.40;77.30
48752;DHT22;34544;48.836;9.174;2022-08-26T14:08:48;32.00;77.00
48752;DHT22;34544;48.836;9.174;2022-08-26T14:11:14;32.80;76.20
48752;DHT22;34544;48.836;9.174;2022-08-26T14:13:40;33.40;75.40
48752;DHT22;34544;48.836;9.174;2022-08-26T14:16:13;34.20;73.30
48752;DHT22;34544;48.836;9.174;2022-08-26T14:18:42;34.70;71.40
48752;DHT22;34544;48.836;9.174;2022-08-26T14:21:10;35.10;71.00
48752;DHT22;34544;48.836;9.174;2022-08-26T14:23:36;34.80;71.40
48752;DHT22;34544;48.836;9.174;2022-08-26T14:26:02;34.40;72.50
48752;DHT22;34544;48.836;9.174;2022-08-26T14:28:32;34.00;74.50
48752;DHT22;34544;48.836;9.174;2022-08-26T14:30:58;33.60;75.50
48752;DHT22;34544;48.836;9.174;2022-08-26T14:33:28;33.20;76.40
48752;DHT22;34544;48.836;9.174;2022-08-26T14:35:57;32.90;77.00
48752;DHT22;34544;48.836;9.174;2022-08-26T14:38:43;32.60;77.80
48752;DHT22;34544;48.836;9.174;2022-08-26T14:41:09;32.30;80.00
48752;DHT22;34544;48.836;9.174;2022-08-26T14:43:35;31.90;78.70
48752;DHT22;34544;48.836;9.174;2022-08-26T14:46:01;31.70;79.00
48752;DHT22;34544;48.836;9.174;2022-08-26T14:48:27;31.40;79.50
48752;DHT22;34544;48.836;9.174;2022-08-26T14:50:52;31.30;80.00
48752;DHT22;34544;48.836;9.174;2022-08-26T14:53:18;31.20;80.70
48752;DHT22;34544;48.836;9.174;2022-08-26T14:56:02;31.10;80.90
48752;DHT22;34544;48.836;9.174;2022-08-26T14:58:28;30.90;80.80
48752;DHT22;34544;48.836;9.174;2022-08-26T15:00:53;30.70;80.50
48752;DHT22;34544;48.836;9.174;2022-08-26T15:03:19;30.60;81.20
48752;DHT22;34544;48.836;9.174;2022-08-26T15:05:45;30.50;81.60
48752;DHT22;34544;48.836;9.174;2022-08-26T15:08:11;30.30;82.20
48752;DHT22;34544;48.836;9.174;2022-08-26T15:10:37;30.20;82.70
48752;DHT22;34544;48.836;9.174;2022-08-26T15:13:03;30.10;83.20
48752;DHT22;34544;48.836;9.174;2022-08-26T15:15:29;30.00;83.20
48752;DHT22;34544;48.836;9.174;2022-08-26T15:17:55;29.90;83.20
48752;DHT22;34544;48.836;9.174;2022-08-26T15:20:21;29.90;89.20
48752;DHT22;34544;48.836;9.174;2022-08-26T15:22:47;29.70;82.90
48752;DHT22;34544;48.836;9.174;2022-08-26T15:25:12;29.60;83.50
48752;DHT22;34544;48.836;9.174;2022-08-26T15:27:38;29.60;84.20
48752;DHT22;34544;48.836;9.174;2022-08-26T15:30:07;29.50;84.40
48752;DHT22;34544;48.836;9.174;2022-08-26T15:32:33;29.40;83.50
48752;DHT22;34544;48.836;9.174;2022-08-26T15:34:59;29.40;83.20
48752;DHT22;34544;48.836;9.174;2022-08-26T15:37:24;29.30;83.90
48752;DHT22;34544;48.836;9.174;2022-08-26T15:39:50;29.20;83.30
48752;DHT22;34544;48.836;9.174;2022-08-26T15:42:16;29.10;83.20
48752;DHT22;34544;48.836;9.174;2022-08-26T15:44:43;29.10;83.40
48752;DHT22;34544;48.836;9.174;2022-08-26T15:47:10;29.00;83.80
48752;DHT22;34544;48.836;9.174;2022-08-26T15:49:37;28.90;84.20
48752;DHT22;34544;48.836;9.174;2022-08-26T15:52:03;28.60;90.20
48752;DHT22;34544;48.836;9.174;2022-08-26T15:54:29;28.10;91.70
48752;DHT22;34544;48.836;9.174;2022-08-26T15:56:56;27.50;92.80
48752;DHT22;34544;48.836;9.174;2022-08-26T15:59:23;26.70;94.30
48752;DHT22;34544;48.836;9.174;2022-08-26T16:01:50;25.90;96.00
48752;DHT22;34544;48.836;9.174;2022-08-26T16:04:16;25.20;99.70
48752;DHT22;34544;48.836;9.174;2022-08-26T16:06:45;24.40;99.90
48752;DHT22;34544;48.836;9.174;2022-08-26T16:09:12;23.70;99.90
48752;DHT22;34544;48.836;9.174;2022-08-26T16:11:37;23.00;99.90
48752;DHT22;34544;48.836;9.174;2022-08-26T16:14:04;22.20;99.90
48752;DHT22;34544;48.836;9.174;2022-08-26T16:16:29;21.80;99.90
48752;DHT22;34544;48.836;9.174;2022-08-26T16:18:56;21.50;99.90
48752;DHT22;34544;48.836;9.174;2022-08-26T16:21:24;21.20;99.90
48752;DHT22;34544;48.836;9.174;2022-08-26T16:23:52;21.00;99.90
48752;DHT22;34544;48.836;9.174;2022-08-26T16:26:24;20.90;99.90
48752;DHT22;34544;48.836;9.174;2022-08-26T16:28:50;20.80;99.90
48752;DHT22;34544;48.836;9.174;2022-08-26T16:31:17;20.70;99.90